createdAt,value
2018-12-30T00:00:44.220Z,14.07
2018-12-30T00:03:11.640Z,13.63
2018-12-30T00:05:39.180Z,14.30
2018-12-30T00:08:06.626Z,14.80
2018-12-30T00:10:34.069Z,13.97
2018-12-30T00:13:01.532Z,9.07
2018-12-30T00:15:29.009Z,16.47
2018-12-30T00:17:56.490Z,16.20
2018-12-30T00:20:23.956Z,10.00
2018-12-30T00:22:51.457Z,13.93
2018-12-30T00:25:18.922Z,16.17
2018-12-30T00:27:46.360Z,9.83
2018-12-30T00:30:13.803Z,12.07
2018-12-30T00:32:41.282Z,14.55
2018-12-30T00:35:08.801Z,15.63
2018-12-30T00:37:36.206Z,15.43
2018-12-30T00:40:03.706Z,12.17
2018-12-30T00:42:31.165Z,17.15
2018-12-30T00:44:58.631Z,12.13
2018-12-30T00:47:26.081Z,12.27
2018-12-30T00:49:53.588Z,14.13
2018-12-30T00:52:21.052Z,16.80
2018-12-30T00:54:48.587Z,20.57
2018-12-30T00:57:16.027Z,9.02
2018-12-30T00:59:43.514Z,17.80
2018-12-30T01:02:10.947Z,9.73
2018-12-30T01:04:38.418Z,17.13
2018-12-30T01:07:05.878Z,11.87
2018-12-30T01:09:33.349Z,14.30
2018-12-30T01:12:00.905Z,11.37
2018-12-30T01:14:28.386Z,14.27
2018-12-30T01:16:55.853Z,15.43
2018-12-30T01:19:23.287Z,17.50
2018-12-30T01:21:50.759Z,12.80
2018-12-30T01:24:18.219Z,14.90
2018-12-30T01:26:45.685Z,14.57
2018-12-30T01:29:13.159Z,20.57
2018-12-30T01:31:40.622Z,13.17
2018-12-30T01:34:08.089Z,10.25
2018-12-30T01:36:37.762Z,16.23
2018-12-30T01:39:05.203Z,12.17
2018-12-30T01:41:32.674Z,13.40
2018-12-30T01:44:00.155Z,15.13
2018-12-30T01:46:27.598Z,13.23
2018-12-30T01:48:55.341Z,10.85
2018-12-30T01:51:23.023Z,14.03
2018-12-30T01:53:50.711Z,14.73
2018-12-30T01:56:18.353Z,12.17
2018-12-30T01:58:47.320Z,10.23
2018-12-30T02:01:14.779Z,10.30
2018-12-30T02:03:42.443Z,13.50
2018-12-30T02:06:09.950Z,14.13
2018-12-30T02:08:37.411Z,10.25
2018-12-30T02:11:04.884Z,12.27
2018-12-30T02:13:32.449Z,8.40
2018-12-30T02:16:00.698Z,10.07
2018-12-30T02:18:28.225Z,8.70
2018-12-30T02:20:55.682Z,12.27
2018-12-30T02:23:23.343Z,11.73
2018-12-30T02:25:50.937Z,14.37
2018-12-30T02:28:18.429Z,10.93
2018-12-30T02:30:45.901Z,13.00
2018-12-30T02:33:13.371Z,15.27
2018-12-30T02:35:40.851Z,8.17
2018-12-30T02:38:08.299Z,8.23
2018-12-30T02:40:35.832Z,15.23
2018-12-30T02:43:03.322Z,11.13
2018-12-30T02:45:30.789Z,11.87
2018-12-30T02:47:58.277Z,12.77
2018-12-30T02:50:25.897Z,12.93
2018-12-30T02:52:53.344Z,14.97
2018-12-30T02:55:20.928Z,10.33
2018-12-30T02:57:48.355Z,15.33
2018-12-30T03:00:15.813Z,9.33
2018-12-30T03:02:43.251Z,10.55
2018-12-30T03:05:10.721Z,11.60
2018-12-30T03:07:38.179Z,9.30
2018-12-30T03:10:05.636Z,11.40
2018-12-30T03:12:33.096Z,10.53
2018-12-30T03:15:00.558Z,11.47
2018-12-30T03:17:27.995Z,12.60
2018-12-30T03:19:55.455Z,7.90
2018-12-30T03:22:22.922Z,13.60
2018-12-30T03:24:50.399Z,13.90
2018-12-30T03:27:17.817Z,13.23
2018-12-30T03:29:45.282Z,15.27
2018-12-30T03:32:15.074Z,17.20
2018-12-30T03:34:42.547Z,9.95
2018-12-30T03:37:10.005Z,11.23
2018-12-30T03:39:37.446Z,10.87
2018-12-30T03:42:04.912Z,8.83
2018-12-30T03:44:32.328Z,13.13
2018-12-30T03:46:59.770Z,12.17
2018-12-30T03:49:27.251Z,11.47
2018-12-30T03:51:54.718Z,13.20
2018-12-30T03:54:22.158Z,14.50
2018-12-30T03:56:49.594Z,12.80
2018-12-30T03:59:17.015Z,7.93
2018-12-30T04:01:44.474Z,16.53
2018-12-30T04:04:11.916Z,10.57
2018-12-30T04:06:40.106Z,14.73
2018-12-30T04:09:09.205Z,13.20
2018-12-30T04:11:36.649Z,10.93
2018-12-30T04:14:04.114Z,13.35
2018-12-30T04:16:31.528Z,9.80
2018-12-30T04:18:58.980Z,13.37
2018-12-30T04:21:26.432Z,14.40
2018-12-30T04:23:53.889Z,14.90
2018-12-30T04:26:21.401Z,10.93
2018-12-30T04:28:48.873Z,11.00
2018-12-30T04:31:16.310Z,11.70
2018-12-30T04:33:43.776Z,15.77
2018-12-30T04:36:11.211Z,12.93
2018-12-30T04:38:38.656Z,11.20
2018-12-30T04:41:06.131Z,11.70
2018-12-30T04:43:33.671Z,13.37
2018-12-30T04:46:01.094Z,14.23
2018-12-30T04:48:28.524Z,14.80
2018-12-30T04:50:55.965Z,13.88
2018-12-30T04:53:23.404Z,11.27
2018-12-30T04:55:50.858Z,7.00
2018-12-30T04:58:18.322Z,13.00
2018-12-30T05:00:45.768Z,10.97
2018-12-30T05:03:13.215Z,12.53
2018-12-30T05:05:40.702Z,12.80
2018-12-30T05:08:08.166Z,8.57
2018-12-30T05:10:35.619Z,11.48
2018-12-30T05:13:03.054Z,13.90
2018-12-30T05:15:30.505Z,19.83
2018-12-30T05:17:57.937Z,11.90
2018-12-30T05:20:25.375Z,14.57
2018-12-30T05:22:52.824Z,13.53
2018-12-30T05:25:20.268Z,11.73
2018-12-30T05:27:47.695Z,14.97
2018-12-30T05:30:15.131Z,15.17
2018-12-30T05:32:42.571Z,17.27
2018-12-30T05:35:10.000Z,12.23
2018-12-30T05:37:37.525Z,12.47
2018-12-30T05:40:04.986Z,13.43
2018-12-30T05:42:32.408Z,16.62
2018-12-30T05:44:59.850Z,16.90
2018-12-30T05:47:27.377Z,7.97
2018-12-30T05:49:54.815Z,13.20
2018-12-30T05:52:22.269Z,20.53
2018-12-30T05:54:49.704Z,13.57
2018-12-30T05:57:17.139Z,13.63
2018-12-30T05:59:44.571Z,16.40
2018-12-30T06:02:11.991Z,13.07
2018-12-30T06:04:39.431Z,18.30
2018-12-30T06:07:06.894Z,13.53
2018-12-30T06:09:34.316Z,14.70
2018-12-30T06:12:01.790Z,15.20
2018-12-30T06:14:29.250Z,17.47
2018-12-30T06:16:56.691Z,12.23
2018-12-30T06:19:24.145Z,15.23
2018-12-30T06:21:51.583Z,11.93
2018-12-30T06:24:19.024Z,19.40
2018-12-30T06:26:46.464Z,13.13
2018-12-30T06:29:13.935Z,22.70
2018-12-30T06:31:41.386Z,15.03
2018-12-30T06:34:11.335Z,12.27
2018-12-30T06:36:38.770Z,14.87
2018-12-30T06:39:08.081Z,14.77
2018-12-30T06:41:35.524Z,11.13
2018-12-30T06:44:02.923Z,17.77
2018-12-30T06:46:30.362Z,11.47
2018-12-30T06:48:57.829Z,16.87
2018-12-30T06:51:25.284Z,14.43
2018-12-30T06:53:52.739Z,11.73
2018-12-30T06:56:20.164Z,12.30
2018-12-30T06:58:47.604Z,10.63
2018-12-30T07:01:15.098Z,18.15
2018-12-30T07:03:42.496Z,12.83
2018-12-30T07:06:09.921Z,17.00
2018-12-30T07:08:37.377Z,17.12
2018-12-30T07:11:04.838Z,16.07
2018-12-30T07:13:32.301Z,14.50
2018-12-30T07:15:59.726Z,21.80
2018-12-30T07:18:27.215Z,18.10
2018-12-30T07:20:55.492Z,15.23
2018-12-30T07:23:23.059Z,12.33
2018-12-30T07:25:50.491Z,17.73
2018-12-30T07:28:17.967Z,16.00
2018-12-30T07:30:45.401Z,18.53
2018-12-30T07:33:15.554Z,14.13
2018-12-30T07:35:43.001Z,13.00
2018-12-30T07:38:10.445Z,19.30
2018-12-30T07:40:37.925Z,11.30
2018-12-30T07:43:05.384Z,18.23
2018-12-30T07:45:32.844Z,16.23
2018-12-30T07:48:00.272Z,18.80
2018-12-30T07:50:27.731Z,15.93
2018-12-30T07:52:55.157Z,12.90
2018-12-30T07:55:22.593Z,11.83
2018-12-30T07:57:50.059Z,15.67
2018-12-30T08:00:17.527Z,13.03
2018-12-30T08:02:44.951Z,13.45
2018-12-30T08:05:12.401Z,15.83
2018-12-30T08:07:39.853Z,15.73
2018-12-30T08:10:07.275Z,11.40
2018-12-30T08:12:34.727Z,12.50
2018-12-30T08:15:02.172Z,16.30
2018-12-30T08:17:29.639Z,15.43
2018-12-30T08:19:57.070Z,13.33
2018-12-30T08:22:24.503Z,16.63
2018-12-30T08:24:52.141Z,18.07
2018-12-30T08:27:19.581Z,18.03
2018-12-30T08:29:47.034Z,8.60
2018-12-30T08:32:14.468Z,14.27
2018-12-30T08:34:41.999Z,14.13
2018-12-30T08:37:09.427Z,12.30
2018-12-30T08:39:36.991Z,11.93
2018-12-30T08:42:04.434Z,13.10
2018-12-30T08:44:31.943Z,17.75
2018-12-30T08:46:59.388Z,21.13
2018-12-30T08:49:26.884Z,11.77
2018-12-30T08:51:54.301Z,9.67
2018-12-30T08:54:21.753Z,15.10
2018-12-30T08:56:49.253Z,12.10
2018-12-30T08:59:16.689Z,14.03
2018-12-30T09:01:44.125Z,10.43
2018-12-30T09:04:11.587Z,10.40
2018-12-30T09:06:39.789Z,12.68
2018-12-30T09:09:07.221Z,11.07
2018-12-30T09:11:34.699Z,14.93
2018-12-30T09:14:02.179Z,12.68
2018-12-30T09:16:29.592Z,13.10
2018-12-30T09:18:57.049Z,11.27
2018-12-30T09:21:24.576Z,12.83
2018-12-30T09:23:52.007Z,9.73
2018-12-30T09:26:19.451Z,13.93
2018-12-30T09:28:46.863Z,9.77
2018-12-30T09:31:14.325Z,8.50
2018-12-30T09:33:41.815Z,10.10
2018-12-30T09:36:09.231Z,8.33
2018-12-30T09:38:36.674Z,5.75
2018-12-30T09:41:04.132Z,9.48
2018-12-30T09:43:31.565Z,6.03
2018-12-30T09:45:59.013Z,13.20
2018-12-30T09:48:33.780Z,8.60
2018-12-30T09:50:54.663Z,6.93
2018-12-30T09:53:22.101Z,8.27
2018-12-30T09:55:49.553Z,6.90
2018-12-30T09:58:17.033Z,7.80
2018-12-30T10:00:44.478Z,7.12
2018-12-30T10:03:11.926Z,10.17
2018-12-30T10:05:39.370Z,9.83
2018-12-30T10:08:06.809Z,9.10
2018-12-30T10:10:34.277Z,10.13
2018-12-30T10:13:01.717Z,10.83
2018-12-30T10:15:29.159Z,6.97
2018-12-30T10:17:56.645Z,15.43
2018-12-30T10:20:24.063Z,6.10
2018-12-30T10:22:58.658Z,8.47
2018-12-30T10:25:18.975Z,9.47
2018-12-30T10:27:46.444Z,16.80
2018-12-30T10:30:13.861Z,13.80
2018-12-30T10:32:41.291Z,12.55
2018-12-30T10:35:08.742Z,8.23
2018-12-30T10:37:36.163Z,10.70
2018-12-30T10:40:03.618Z,14.87
2018-12-30T10:42:31.053Z,11.07
2018-12-30T10:44:58.501Z,14.63
2018-12-30T10:47:25.939Z,14.30
2018-12-30T10:49:53.419Z,14.40
2018-12-30T10:52:20.854Z,15.67
2018-12-30T10:54:48.329Z,12.33
2018-12-30T10:57:16.537Z,11.03
2018-12-30T10:59:44.055Z,16.23
2018-12-30T11:02:11.499Z,14.20
2018-12-30T11:04:38.937Z,14.50
2018-12-30T11:07:06.396Z,12.70
2018-12-30T11:09:34.093Z,9.23
2018-12-30T11:12:01.544Z,15.27
2018-12-30T11:14:28.984Z,10.17
2018-12-30T11:16:56.441Z,12.33
2018-12-30T11:19:23.935Z,13.90
2018-12-30T11:21:51.372Z,16.00
2018-12-30T11:24:18.825Z,15.73
2018-12-30T11:26:46.276Z,17.10
2018-12-30T11:29:13.730Z,21.47
2018-12-30T11:31:41.174Z,15.73
2018-12-30T11:34:08.622Z,14.50
2018-12-30T11:36:36.054Z,12.40
2018-12-30T11:39:03.537Z,15.73
2018-12-30T11:41:30.970Z,10.63
2018-12-30T11:43:58.409Z,8.73
2018-12-30T11:46:25.871Z,10.97
2018-12-30T11:48:53.288Z,14.27
2018-12-30T11:51:20.787Z,12.83
2018-12-30T11:53:48.232Z,13.03
2018-12-30T11:56:17.524Z,12.37
2018-12-30T11:58:44.957Z,15.27
2018-12-30T12:01:12.401Z,12.87
2018-12-30T12:03:39.861Z,15.07
2018-12-30T12:06:07.279Z,16.00
2018-12-30T12:08:34.733Z,17.73
2018-12-30T12:11:02.156Z,14.98
2018-12-30T12:13:29.624Z,13.83
2018-12-30T12:15:57.058Z,15.40
2018-12-30T12:18:25.300Z,13.93
2018-12-30T12:20:52.851Z,10.80
2018-12-30T12:23:20.284Z,15.73
2018-12-30T12:25:47.713Z,10.53
2018-12-30T12:28:15.151Z,15.95
2018-12-30T12:30:43.574Z,16.37
2018-12-30T12:33:11.088Z,16.40
2018-12-30T12:35:38.549Z,13.83
2018-12-30T12:38:06.007Z,17.53
2018-12-30T12:40:33.451Z,18.35
2018-12-30T12:43:00.899Z,18.73
2018-12-30T12:45:30.035Z,14.07
2018-12-30T12:47:57.578Z,17.03
2018-12-30T12:50:25.009Z,16.63
2018-12-30T12:52:52.443Z,11.37
2018-12-30T12:55:19.868Z,9.77
2018-12-30T12:57:47.332Z,14.93
2018-12-30T13:00:14.794Z,11.17
2018-12-30T13:02:42.280Z,11.32
2018-12-30T13:05:09.708Z,9.93
2018-12-30T13:07:38.067Z,14.80
2018-12-30T13:10:05.581Z,11.03
2018-12-30T13:12:33.018Z,11.68
2018-12-30T13:15:00.487Z,11.90
2018-12-30T13:17:27.967Z,10.17
2018-12-30T13:19:55.431Z,8.17
2018-12-30T13:22:22.864Z,13.60
2018-12-30T13:24:50.290Z,14.43
2018-12-30T13:27:17.771Z,12.97
2018-12-30T13:29:45.223Z,12.03
2018-12-30T13:32:12.706Z,14.07
2018-12-30T13:34:40.212Z,17.37
2018-12-30T13:37:07.854Z,17.07
2018-12-30T13:39:35.365Z,18.23
2018-12-30T13:42:02.843Z,17.63
2018-12-30T13:44:30.290Z,12.73
2018-12-30T13:46:57.740Z,14.93
2018-12-30T13:49:25.206Z,11.90
2018-12-30T13:51:53.327Z,13.87
2018-12-30T13:54:20.148Z,13.57
2018-12-30T13:56:47.682Z,15.80
2018-12-30T13:59:16.203Z,11.80
2018-12-30T14:01:45.370Z,17.92
2018-12-30T14:04:17.266Z,10.30
2018-12-30T14:06:44.935Z,16.33
2018-12-30T14:09:12.361Z,13.13
2018-12-30T14:11:39.875Z,12.67
2018-12-30T14:14:07.307Z,12.30
2018-12-30T14:16:34.779Z,16.65
2018-12-30T14:19:02.241Z,15.97
2018-12-30T14:21:29.689Z,12.17
2018-12-30T14:23:57.151Z,15.40
2018-12-30T14:26:24.612Z,11.33
2018-12-30T14:28:52.046Z,13.40
2018-12-30T14:31:19.491Z,13.90
2018-12-30T14:33:46.939Z,12.17
2018-12-30T14:36:14.386Z,13.10
2018-12-30T14:38:44.083Z,11.85
2018-12-30T14:41:11.511Z,8.93
2018-12-30T14:43:38.969Z,15.00
2018-12-30T14:46:06.430Z,15.10
2018-12-30T14:48:33.892Z,12.77
2018-12-30T14:51:01.382Z,13.53
2018-12-30T14:53:28.814Z,12.47
2018-12-30T14:55:56.328Z,16.83
2018-12-30T14:58:23.788Z,16.17
2018-12-30T15:00:51.216Z,15.40
2018-12-30T15:03:18.703Z,16.27
2018-12-30T15:05:46.152Z,15.47
2018-12-30T15:08:13.613Z,13.33
2018-12-30T15:10:41.071Z,13.15
2018-12-30T15:13:08.511Z,13.07
2018-12-30T15:15:35.956Z,13.60
2018-12-30T15:18:03.407Z,12.20
2018-12-30T15:20:30.837Z,11.27
2018-12-30T15:22:58.290Z,13.07
2018-12-30T15:25:25.746Z,14.87
2018-12-30T15:27:53.194Z,12.70
2018-12-30T15:30:20.672Z,9.47
2018-12-30T15:32:48.121Z,15.33
2018-12-30T15:35:15.554Z,11.40
2018-12-30T15:37:44.420Z,13.57
2018-12-30T15:40:12.007Z,10.47
2018-12-30T15:42:39.463Z,15.38
2018-12-30T15:45:06.882Z,10.87
2018-12-30T15:47:34.334Z,12.90
2018-12-30T15:50:01.768Z,9.67
2018-12-30T15:52:29.212Z,14.40
2018-12-30T15:54:56.627Z,13.00
2018-12-30T15:57:24.075Z,15.67
2018-12-30T15:59:51.513Z,10.30
2018-12-30T16:02:18.977Z,9.30
2018-12-30T16:04:46.393Z,11.07
2018-12-30T16:07:13.887Z,11.40
2018-12-30T16:09:41.345Z,16.93
2018-12-30T16:12:08.779Z,11.13
2018-12-30T16:14:36.257Z,12.85
2018-12-30T16:17:03.682Z,13.77
2018-12-30T16:19:31.134Z,10.35
2018-12-30T16:21:58.574Z,10.30
2018-12-30T16:24:26.041Z,10.43
2018-12-30T16:26:53.491Z,11.43
2018-12-30T16:29:20.926Z,14.70
2018-12-30T16:31:48.386Z,10.53
2018-12-30T16:34:16.685Z,12.57
2018-12-30T16:36:44.253Z,12.70
2018-12-30T16:39:11.698Z,12.10
2018-12-30T16:41:39.144Z,14.60
2018-12-30T16:44:06.652Z,13.73
2018-12-30T16:46:34.187Z,17.77
2018-12-30T16:49:01.560Z,12.33
2018-12-30T16:51:29.009Z,13.47
2018-12-30T16:53:56.446Z,17.30
2018-12-30T16:56:23.907Z,14.07
2018-12-30T16:58:51.345Z,12.60
2018-12-30T17:01:18.793Z,17.87
2018-12-30T17:03:46.249Z,14.18
2018-12-30T17:06:14.534Z,13.20
2018-12-30T17:08:41.235Z,12.90
2018-12-30T17:11:08.695Z,15.77
2018-12-30T17:13:36.161Z,16.97
2018-12-30T17:16:03.625Z,14.27
2018-12-30T17:18:31.071Z,13.20
2018-12-30T17:20:59.205Z,16.60
2018-12-30T17:23:26.803Z,14.77
2018-12-30T17:25:54.245Z,15.70
2018-12-30T17:28:21.697Z,14.80
2018-12-30T17:30:49.144Z,12.30
2018-12-30T17:33:16.591Z,16.00
2018-12-30T17:35:44.028Z,15.90
2018-12-30T17:38:11.493Z,15.93
2018-12-30T17:40:38.959Z,17.17
2018-12-30T17:43:06.409Z,14.43
2018-12-30T17:45:34.930Z,14.47
2018-12-30T17:48:02.437Z,13.23
2018-12-30T17:50:30.581Z,17.03
2018-12-30T17:52:58.023Z,12.10
2018-12-30T17:55:25.499Z,15.83
2018-12-30T17:57:52.956Z,17.00
2018-12-30T18:00:20.386Z,15.43
2018-12-30T18:02:47.837Z,15.30
2018-12-30T18:05:15.270Z,18.37
2018-12-30T18:07:42.738Z,18.50
2018-12-30T18:10:10.198Z,17.37
2018-12-30T18:12:39.397Z,17.58
2018-12-30T18:15:06.893Z,16.53
2018-12-30T18:17:41.178Z,17.83
2018-12-30T18:20:01.852Z,23.23
2018-12-30T18:22:29.273Z,19.17
2018-12-30T18:24:56.721Z,16.37
2018-12-30T18:27:24.175Z,20.27
2018-12-30T18:29:51.625Z,16.97
2018-12-30T18:32:19.113Z,22.63
2018-12-30T18:34:46.556Z,25.70
2018-12-30T18:37:14.002Z,24.23
2018-12-30T18:39:41.463Z,28.57
2018-12-30T18:42:08.913Z,27.40
2018-12-30T18:44:36.367Z,23.35
2018-12-30T18:47:03.799Z,23.70
2018-12-30T18:49:31.219Z,27.27
2018-12-30T18:51:58.687Z,26.40
2018-12-30T18:54:26.142Z,23.93
2018-12-30T18:56:53.581Z,28.37
2018-12-30T18:59:20.995Z,22.90
2018-12-30T19:01:48.454Z,22.10
2018-12-30T19:04:15.924Z,23.00
2018-12-30T19:06:43.372Z,22.20
2018-12-30T19:09:10.841Z,23.33
2018-12-30T19:11:38.276Z,27.90
2018-12-30T19:14:05.714Z,20.83
2018-12-30T19:16:33.177Z,23.45
2018-12-30T19:19:00.641Z,21.13
2018-12-30T19:21:28.203Z,21.67
2018-12-30T19:23:55.636Z,21.63
2018-12-30T19:26:23.079Z,19.93
2018-12-30T19:28:50.526Z,19.57
2018-12-30T19:31:17.988Z,15.90
2018-12-30T19:33:45.479Z,17.47
2018-12-30T19:36:12.901Z,19.47
2018-12-30T19:41:30.913Z,19.23
2018-12-30T19:43:58.351Z,19.03
2018-12-30T19:46:25.809Z,21.03
2018-12-30T19:48:53.253Z,20.07
2018-12-30T19:51:20.687Z,22.70
2018-12-30T19:53:48.162Z,22.63
2018-12-30T19:56:21.858Z,21.53
2018-12-30T19:58:43.057Z,21.53
2018-12-30T20:01:10.479Z,25.60
2018-12-30T20:03:37.931Z,25.73
2018-12-30T20:06:05.379Z,23.37
2018-12-30T20:08:32.847Z,25.00
2018-12-30T20:11:00.295Z,27.57
2018-12-30T20:13:27.740Z,28.73
2018-12-30T20:15:55.188Z,36.95
2018-12-30T20:18:22.623Z,34.20
2018-12-30T20:20:50.051Z,31.47
2018-12-30T20:23:18.253Z,29.37
2018-12-30T20:25:45.744Z,30.20
2018-12-30T20:28:13.217Z,32.27
2018-12-30T20:30:40.694Z,33.17
2018-12-30T20:33:08.128Z,29.63
2018-12-30T20:35:35.585Z,39.17
2018-12-30T20:38:03.067Z,49.67
2018-12-30T20:40:30.496Z,55.83
2018-12-30T20:42:57.939Z,62.30
2018-12-30T20:45:25.398Z,75.83
2018-12-30T20:47:52.869Z,74.27
2018-12-30T20:50:20.319Z,55.23
2018-12-30T20:52:47.779Z,111.70
2018-12-30T20:55:15.212Z,48.87
2018-12-30T20:57:42.666Z,43.47
2018-12-30T21:00:10.162Z,66.83
2018-12-30T21:02:37.638Z,55.97
2018-12-30T21:05:05.092Z,46.87
2018-12-30T21:07:32.634Z,49.30
2018-12-30T21:10:00.191Z,40.13
2018-12-30T21:12:27.669Z,39.27
2018-12-30T21:14:55.091Z,41.17
2018-12-30T21:17:22.558Z,36.70
2018-12-30T21:19:50.000Z,39.17
2018-12-30T21:22:17.527Z,34.03
2018-12-30T21:24:45.151Z,32.00
2018-12-30T21:27:12.633Z,31.20
2018-12-30T21:29:40.218Z,26.63
2018-12-30T21:32:07.646Z,27.30
2018-12-30T21:34:35.078Z,23.77
2018-12-30T21:37:02.721Z,23.97
2018-12-30T21:39:30.216Z,20.07
2018-12-30T21:41:57.670Z,21.67
2018-12-30T21:44:25.165Z,23.40
2018-12-30T21:46:52.705Z,20.80
2018-12-30T21:49:20.143Z,18.40
2018-12-30T21:51:47.602Z,19.70
2018-12-30T21:54:15.086Z,18.20
2018-12-30T21:56:42.854Z,19.00
2018-12-30T21:59:10.326Z,20.37
2018-12-30T22:01:37.802Z,20.03
2018-12-30T22:04:05.241Z,21.20
2018-12-30T22:06:32.703Z,19.50
2018-12-30T22:09:00.147Z,18.70
2018-12-30T22:11:27.633Z,23.30
2018-12-30T22:13:55.828Z,23.30
2018-12-30T22:16:23.315Z,23.87
2018-12-30T22:18:50.800Z,23.03
2018-12-30T22:21:18.290Z,23.30
2018-12-30T22:23:45.750Z,20.80
2018-12-30T22:26:13.216Z,24.17
2018-12-30T22:28:40.671Z,22.65
2018-12-30T22:31:08.193Z,21.87
2018-12-30T22:33:35.685Z,23.07
2018-12-30T22:36:03.111Z,26.90
2018-12-30T22:38:30.681Z,22.87
2018-12-30T22:40:59.151Z,25.10
2018-12-30T22:43:26.674Z,20.93
2018-12-30T22:45:54.347Z,23.63
2018-12-30T22:48:21.803Z,28.43
2018-12-30T22:50:49.243Z,22.23
2018-12-30T22:53:17.624Z,28.13
2018-12-30T22:55:45.085Z,23.30
2018-12-30T22:58:12.662Z,23.77
2018-12-30T23:00:45.570Z,22.37
2018-12-30T23:03:13.062Z,25.50
2018-12-30T23:05:40.538Z,19.63
2018-12-30T23:08:08.016Z,23.03
2018-12-30T23:10:35.455Z,22.58
2018-12-30T23:13:03.082Z,22.30
2018-12-30T23:15:30.523Z,21.57
2018-12-30T23:17:57.985Z,26.87
2018-12-30T23:20:25.537Z,21.47
2018-12-30T23:22:52.986Z,22.00
2018-12-30T23:25:20.470Z,23.50
2018-12-30T23:27:47.906Z,22.00
2018-12-30T23:30:15.337Z,22.23
2018-12-30T23:32:42.814Z,26.08
2018-12-30T23:35:10.332Z,23.60
2018-12-30T23:37:37.787Z,24.37
2018-12-30T23:40:05.249Z,27.57
2018-12-30T23:42:32.758Z,25.33
2018-12-30T23:45:00.298Z,27.13
2018-12-30T23:47:27.744Z,31.93
2018-12-30T23:49:55.210Z,31.47
2018-12-30T23:52:22.677Z,32.60
2018-12-30T23:54:50.121Z,36.63
2018-12-30T23:57:17.596Z,34.20
2018-12-30T23:59:45.067Z,30.90
